createdAt,value
2022-09-12T00:01:27.955Z,7.03
2022-09-12T00:03:58.607Z,5.33
2022-09-12T00:06:30.883Z,5.50
2022-09-12T00:09:01.660Z,5.23
2022-09-12T00:11:30.898Z,7.33
2022-09-12T00:14:00.863Z,5.40
2022-09-12T00:16:31.604Z,6.10
2022-09-12T00:19:00.597Z,5.80
2022-09-12T00:21:30.693Z,5.23
2022-09-12T00:23:59.372Z,5.33
2022-09-12T00:26:28.290Z,5.67
2022-09-12T00:28:56.925Z,5.43
2022-09-12T00:31:27.092Z,6.30
2022-09-12T00:33:57.706Z,5.00
2022-09-12T00:36:27.465Z,5.37
2022-09-12T00:38:57.574Z,5.13
2022-09-12T00:41:27.901Z,5.43
2022-09-12T00:43:58.492Z,5.30
2022-09-12T00:46:31.885Z,5.20
2022-09-12T00:49:03.256Z,5.50
2022-09-12T00:51:34.342Z,5.57
2022-09-12T00:54:07.411Z,8.77
2022-09-12T00:56:37.077Z,5.00
2022-09-12T00:59:08.478Z,4.97
2022-09-12T01:01:37.681Z,6.53
2022-09-12T01:04:06.416Z,5.70
2022-09-12T01:06:37.769Z,6.40
2022-09-12T01:09:08.697Z,7.07
2022-09-12T01:11:38.885Z,6.07
2022-09-12T01:14:08.025Z,5.77
2022-09-12T01:16:37.179Z,5.80
2022-09-12T01:19:20.212Z,5.30
2022-09-12T01:21:58.473Z,6.60
2022-09-12T01:24:48.024Z,4.80
2022-09-12T01:27:38.690Z,5.73
2022-09-12T01:30:24.901Z,8.73
2022-09-12T01:33:07.148Z,6.07
2022-09-12T01:35:40.990Z,5.70
2022-09-12T01:38:13.666Z,5.30
2022-09-12T01:40:48.004Z,5.53
2022-09-12T01:43:21.251Z,7.20
2022-09-12T01:45:57.937Z,6.53
2022-09-12T01:48:29.844Z,7.50
2022-09-12T01:51:00.479Z,7.90
2022-09-12T01:53:30.931Z,8.73
2022-09-12T01:56:03.619Z,9.10
2022-09-12T01:58:39.974Z,8.27
2022-09-12T02:01:13.788Z,9.90
2022-09-12T02:03:46.087Z,8.03
2022-09-12T02:06:20.399Z,7.57
2022-09-12T02:08:52.399Z,8.80
2022-09-12T02:11:21.406Z,7.63
2022-09-12T02:13:55.049Z,8.90
2022-09-12T02:16:30.659Z,8.13
2022-09-12T02:19:02.925Z,7.33
2022-09-12T02:21:33.079Z,8.17
2022-09-12T02:24:03.786Z,8.00
2022-09-12T02:26:35.331Z,14.23
2022-09-12T02:29:04.896Z,10.03
2022-09-12T02:31:39.917Z,12.70
2022-09-12T02:34:11.668Z,13.10
2022-09-12T02:36:50.005Z,19.70
2022-09-12T02:39:21.255Z,19.10
2022-09-12T02:41:52.026Z,16.60
2022-09-12T02:44:20.826Z,104.83
2022-09-12T02:46:52.894Z,33.97
2022-09-12T02:49:21.581Z,110.93
2022-09-12T02:51:50.683Z,103.37
2022-09-12T02:54:20.218Z,61.47
2022-09-12T02:56:48.660Z,93.13
2022-09-12T02:59:19.171Z,92.40
2022-09-12T03:02:10.554Z,57.50
2022-09-12T03:04:48.922Z,64.17
2022-09-12T03:07:22.144Z,51.87
2022-09-12T03:09:58.181Z,107.07
2022-09-12T03:12:35.638Z,69.63
2022-09-12T03:15:17.038Z,31.30
2022-09-12T03:18:02.009Z,45.23
2022-09-12T03:20:40.822Z,92.23
2022-09-12T03:23:15.664Z,67.40
2022-09-12T03:25:48.608Z,155.43
2022-09-12T03:28:17.971Z,185.80
2022-09-12T03:30:47.733Z,50.10
2022-09-12T03:33:19.199Z,129.07
2022-09-12T03:35:48.380Z,111.30
2022-09-12T03:38:16.834Z,66.60
2022-09-12T03:40:47.779Z,14.97
2022-09-12T03:43:17.794Z,37.27
2022-09-12T03:45:46.259Z,53.30
2022-09-12T03:48:14.963Z,88.20
2022-09-12T03:50:44.790Z,17.47
2022-09-12T03:53:17.086Z,34.90
2022-09-12T03:55:46.924Z,36.03
2022-09-12T03:58:15.306Z,22.30
2022-09-12T04:00:44.338Z,28.77
2022-09-12T04:03:12.792Z,16.90
2022-09-12T04:05:41.213Z,11.27
2022-09-12T04:08:11.106Z,17.80
2022-09-12T04:10:39.610Z,13.23
2022-09-12T04:13:08.119Z,17.87
2022-09-12T04:15:36.565Z,17.20
2022-09-12T04:18:06.249Z,12.77
2022-09-12T04:20:34.768Z,19.30
2022-09-12T04:23:03.226Z,16.33
2022-09-12T04:25:33.020Z,12.60
2022-09-12T04:28:01.515Z,42.80
2022-09-12T04:30:29.957Z,36.60
2022-09-12T04:32:58.389Z,69.37
2022-09-12T04:35:27.494Z,22.67
2022-09-12T04:37:55.865Z,77.43
2022-09-12T04:40:24.354Z,45.77
2022-09-12T04:42:56.046Z,39.70
2022-09-12T04:45:24.545Z,40.33
2022-09-12T04:47:53.137Z,65.57
2022-09-12T04:50:21.568Z,85.33
2022-09-12T04:52:51.087Z,72.73
2022-09-12T04:55:19.747Z,79.07
2022-09-12T04:57:48.288Z,51.27
2022-09-12T05:00:18.420Z,62.93
2022-09-12T05:02:46.937Z,22.33
2022-09-12T05:05:15.487Z,21.23
2022-09-12T05:07:43.995Z,28.20
2022-09-12T05:10:12.692Z,14.47
2022-09-12T05:12:41.249Z,38.97
2022-09-12T05:15:10.835Z,18.63
2022-09-12T05:17:40.609Z,17.77
2022-09-12T05:20:12.789Z,27.30
2022-09-12T05:22:41.272Z,64.43
2022-09-12T05:25:10.904Z,62.53
2022-09-12T05:27:39.485Z,51.57
2022-09-12T05:30:09.449Z,20.03
2022-09-12T05:32:37.995Z,94.83
2022-09-12T05:35:08.386Z,38.10
2022-09-12T05:37:37.347Z,46.67
2022-09-12T05:40:08.608Z,84.23
2022-09-12T05:42:37.175Z,56.67
2022-09-12T05:45:06.748Z,31.50
2022-09-12T05:47:35.485Z,58.20
2022-09-12T05:50:10.707Z,16.13
2022-09-12T05:52:40.492Z,22.37
2022-09-12T05:55:09.775Z,7.60
2022-09-12T05:57:40.499Z,43.90
2022-09-12T06:00:10.939Z,69.80
2022-09-12T06:02:41.920Z,48.43
2022-09-12T06:05:10.582Z,45.60
2022-09-12T06:07:40.436Z,137.43
2022-09-12T06:10:11.946Z,93.60
2022-09-12T06:12:40.544Z,108.70
2022-09-12T06:15:10.614Z,26.63
2022-09-12T06:17:39.146Z,116.43
2022-09-12T06:20:08.786Z,39.43
2022-09-12T06:22:37.496Z,27.60
2022-09-12T06:25:08.976Z,34.17
2022-09-12T06:27:37.390Z,46.97
2022-09-12T06:30:07.037Z,66.17
2022-09-12T06:32:36.546Z,32.77
2022-09-12T06:35:09.236Z,34.17
2022-09-12T06:37:37.793Z,28.47
2022-09-12T06:40:10.188Z,25.17
2022-09-12T06:42:38.670Z,34.07
2022-09-12T06:45:08.201Z,70.97
2022-09-12T06:47:37.188Z,39.13
2022-09-12T06:50:06.664Z,35.90
2022-09-12T06:52:35.459Z,56.87
2022-09-12T06:55:04.035Z,29.93
2022-09-12T06:57:36.454Z,15.80
2022-09-12T07:00:05.635Z,12.77
2022-09-12T07:02:34.178Z,13.33
2022-09-12T07:05:02.769Z,13.87
2022-09-12T07:07:34.324Z,14.30
2022-09-12T07:10:08.380Z,10.83
2022-09-12T07:12:39.807Z,42.70
2022-09-12T07:15:09.556Z,14.83
2022-09-12T07:17:38.195Z,55.83
2022-09-12T07:20:07.755Z,35.60
2022-09-12T07:22:36.240Z,39.77
2022-09-12T07:25:05.123Z,56.03
2022-09-12T07:27:33.538Z,13.87
2022-09-12T07:30:03.347Z,37.37
2022-09-12T07:32:31.997Z,7.73
2022-09-12T07:35:00.524Z,10.43
2022-09-12T07:37:31.593Z,11.20
2022-09-12T07:40:00.157Z,13.03
2022-09-12T07:42:37.260Z,9.93
2022-09-12T07:45:08.904Z,8.60
2022-09-12T07:47:39.749Z,12.23
2022-09-12T07:50:09.002Z,11.37
2022-09-12T07:52:37.434Z,12.73
2022-09-12T07:55:09.516Z,8.90
2022-09-12T07:57:39.142Z,7.70
2022-09-12T08:00:10.913Z,5.73
2022-09-12T08:02:41.961Z,5.37
2022-09-12T08:05:10.855Z,6.33
2022-09-12T08:07:39.349Z,10.30
2022-09-12T08:10:08.969Z,10.27
2022-09-12T08:12:37.577Z,14.10
2022-09-12T08:15:07.035Z,11.03
2022-09-12T08:17:36.806Z,11.63
2022-09-12T08:20:05.751Z,15.53
2022-09-12T08:22:34.637Z,11.20
2022-09-12T08:25:03.151Z,17.13
2022-09-12T08:27:31.567Z,13.97
2022-09-12T08:30:00.530Z,14.83
2022-09-12T08:32:29.059Z,16.43
2022-09-12T08:34:59.731Z,16.77
2022-09-12T08:37:31.207Z,11.13
2022-09-12T08:39:59.696Z,11.03
2022-09-12T08:42:39.363Z,9.60
2022-09-12T08:45:18.768Z,14.60
2022-09-12T08:47:48.880Z,11.10
2022-09-12T08:50:20.788Z,13.93
2022-09-12T08:52:58.111Z,14.00
2022-09-12T08:55:33.399Z,13.70
2022-09-12T08:58:03.344Z,11.77
2022-09-12T09:00:40.556Z,12.63
2022-09-12T09:03:32.036Z,12.90
2022-09-12T09:06:15.316Z,13.70
2022-09-12T09:08:51.174Z,11.43
2022-09-12T09:11:30.558Z,12.40
2022-09-12T09:14:24.987Z,16.63
2022-09-12T09:16:55.003Z,12.97
2022-09-12T09:19:28.038Z,15.17
2022-09-12T09:22:00.040Z,12.43
2022-09-12T09:24:33.860Z,17.53
2022-09-12T09:27:11.094Z,14.83
2022-09-12T09:29:54.146Z,14.87
2022-09-12T09:32:27.691Z,13.43
2022-09-12T09:34:56.494Z,12.33
2022-09-12T09:37:32.282Z,11.90
2022-09-12T09:40:04.230Z,10.90
2022-09-12T09:42:44.750Z,11.37
2022-09-12T09:45:16.143Z,9.63
2022-09-12T09:47:46.761Z,10.40
2022-09-12T09:50:17.702Z,7.77
2022-09-12T09:52:48.539Z,10.70
2022-09-12T09:55:22.119Z,9.90
2022-09-12T09:57:52.394Z,8.90
2022-09-12T10:00:28.707Z,10.90
2022-09-12T10:03:17.312Z,11.10
2022-09-12T10:05:47.910Z,9.80
2022-09-12T10:08:28.649Z,7.90
2022-09-12T10:11:06.666Z,10.33
2022-09-12T10:13:41.736Z,8.70
2022-09-12T10:16:20.387Z,7.90
2022-09-12T10:18:51.019Z,8.30
2022-09-12T10:21:23.528Z,8.80
2022-09-12T10:24:01.013Z,9.23
2022-09-12T10:26:34.049Z,8.30
2022-09-12T10:29:06.571Z,8.50
2022-09-12T10:31:43.111Z,7.37
2022-09-12T10:34:21.894Z,5.80
2022-09-12T10:36:50.365Z,4.80
2022-09-12T10:39:20.830Z,6.93
2022-09-12T10:41:49.424Z,5.83
2022-09-12T10:44:19.516Z,5.47
2022-09-12T10:46:49.202Z,5.47
2022-09-12T10:49:27.881Z,6.33
2022-09-12T10:51:59.650Z,5.20
2022-09-12T10:54:29.741Z,4.67
2022-09-12T10:57:30.645Z,4.20
2022-09-12T11:00:12.740Z,3.50
2022-09-12T11:03:00.041Z,3.70
2022-09-12T11:05:45.405Z,4.20
2022-09-12T11:08:21.922Z,3.93
2022-09-12T11:10:57.090Z,3.13
2022-09-12T11:13:38.468Z,2.97
2022-09-12T11:16:23.142Z,2.90
2022-09-12T11:19:10.767Z,3.20
2022-09-12T11:21:54.780Z,3.27
2022-09-12T11:24:48.354Z,3.37
2022-09-12T11:27:30.955Z,2.93
2022-09-12T11:30:00.715Z,3.27
2022-09-12T11:32:51.052Z,2.30
2022-09-12T11:35:25.733Z,3.33
2022-09-12T11:38:25.686Z,3.40
2022-09-12T11:40:55.970Z,3.60
2022-09-12T11:43:36.932Z,2.80
2022-09-12T11:46:14.739Z,3.60
2022-09-12T11:48:54.715Z,4.77
2022-09-12T11:51:27.434Z,4.07
2022-09-12T11:54:02.575Z,3.37
2022-09-12T11:56:31.082Z,4.63
2022-09-12T11:59:06.218Z,3.40
2022-09-12T12:01:46.370Z,4.33
2022-09-12T12:04:20.457Z,3.47
2022-09-12T12:06:53.849Z,3.17
2022-09-12T12:09:23.460Z,2.73
2022-09-12T12:11:56.057Z,4.63
2022-09-12T12:14:30.615Z,3.50
2022-09-12T12:16:59.610Z,5.40
2022-09-12T12:19:34.305Z,3.30
2022-09-12T12:22:16.987Z,3.73
2022-09-12T12:25:06.803Z,3.10
2022-09-12T12:27:51.676Z,3.77
2022-09-12T12:31:01.017Z,4.13
2022-09-12T12:34:15.631Z,3.53
2022-09-12T12:36:46.484Z,3.77
2022-09-12T12:40:02.878Z,2.93
2022-09-12T12:43:05.151Z,2.97
2022-09-12T12:46:02.137Z,3.30
2022-09-12T12:48:55.454Z,3.37
2022-09-12T12:51:46.876Z,3.33
2022-09-12T12:54:31.817Z,3.23
2022-09-12T12:57:18.326Z,3.43
2022-09-12T12:59:53.258Z,2.90
2022-09-12T13:02:25.387Z,3.13
2022-09-12T13:04:54.151Z,5.17
2022-09-12T13:07:30.529Z,3.40
2022-09-12T13:10:02.035Z,3.40
2022-09-12T13:12:33.928Z,3.20
2022-09-12T13:15:03.910Z,3.20
2022-09-12T13:17:38.585Z,2.87
2022-09-12T13:20:29.261Z,5.70
2022-09-12T13:22:59.496Z,3.37
2022-09-12T13:25:32.104Z,4.17
2022-09-12T13:28:03.674Z,3.83
2022-09-12T13:30:33.814Z,3.27
2022-09-12T13:33:19.606Z,4.70
2022-09-12T13:36:06.921Z,3.17
2022-09-12T13:38:40.696Z,4.77
2022-09-12T13:41:23.036Z,4.00
2022-09-12T13:43:52.251Z,3.50
2022-09-12T13:46:26.235Z,5.37
2022-09-12T13:48:55.080Z,3.60
2022-09-12T13:51:26.436Z,3.60
2022-09-12T13:53:57.615Z,3.30
2022-09-12T13:56:27.719Z,3.70
2022-09-12T13:58:58.124Z,3.50
2022-09-12T14:01:38.938Z,3.97
2022-09-12T14:04:34.268Z,4.33
2022-09-12T14:07:10.057Z,4.60
2022-09-12T14:09:41.663Z,6.83
2022-09-12T14:12:25.236Z,4.00
2022-09-12T14:14:54.464Z,4.20
2022-09-12T14:17:29.752Z,4.23
2022-09-12T14:19:59.462Z,4.97
2022-09-12T14:22:29.835Z,4.20
2022-09-12T14:24:59.603Z,3.67
2022-09-12T14:27:33.136Z,7.43
2022-09-12T14:30:03.223Z,3.80
2022-09-12T14:32:31.773Z,4.57
2022-09-12T14:35:20.369Z,4.93
2022-09-12T14:37:50.985Z,6.13
2022-09-12T14:40:22.382Z,4.20
2022-09-12T14:42:55.980Z,3.90
2022-09-12T14:45:29.926Z,3.97
2022-09-12T14:47:59.581Z,4.00
2022-09-12T14:50:31.276Z,4.73
2022-09-12T14:53:07.930Z,4.13
2022-09-12T14:55:43.910Z,4.43
2022-09-12T14:58:23.644Z,4.20
2022-09-12T15:00:57.801Z,4.37
2022-09-12T15:03:30.058Z,4.47
2022-09-12T15:06:00.664Z,6.37
2022-09-12T15:08:38.812Z,5.20
2022-09-12T15:11:08.593Z,4.37
2022-09-12T15:13:43.023Z,4.77
2022-09-12T15:16:13.229Z,4.20
2022-09-12T15:18:42.324Z,4.63
2022-09-12T15:21:13.758Z,4.00
2022-09-12T15:23:44.688Z,4.90
2022-09-12T15:26:14.611Z,7.03
2022-09-12T15:28:46.252Z,5.37
2022-09-12T15:31:19.533Z,4.03
2022-09-12T15:33:48.165Z,5.13
2022-09-12T15:36:19.044Z,5.00
2022-09-12T15:38:48.858Z,4.63
2022-09-12T15:41:19.473Z,5.50
2022-09-12T15:44:08.609Z,4.63
2022-09-12T15:46:43.115Z,4.37
2022-09-12T15:49:13.184Z,4.87
2022-09-12T15:51:41.612Z,5.37
2022-09-12T15:54:11.726Z,5.03
2022-09-12T15:56:41.218Z,6.93
2022-09-12T15:59:11.311Z,5.00
2022-09-12T16:01:39.733Z,5.40
2022-09-12T16:04:21.277Z,5.00
2022-09-12T16:06:49.898Z,4.77
2022-09-12T16:09:18.844Z,4.80
2022-09-12T16:11:47.843Z,4.53
2022-09-12T16:14:18.841Z,4.70
2022-09-12T16:16:53.736Z,4.30
2022-09-12T16:19:22.454Z,4.63
2022-09-12T16:21:50.879Z,4.37
2022-09-12T16:24:19.330Z,4.07
2022-09-12T16:26:47.734Z,6.93
2022-09-12T16:29:17.599Z,4.83
2022-09-12T16:31:47.255Z,5.13
2022-09-12T16:34:16.142Z,5.07
2022-09-12T16:36:45.355Z,4.90
2022-09-12T16:39:13.953Z,4.83
2022-09-12T16:41:42.730Z,4.87
2022-09-12T16:44:11.391Z,4.40
2022-09-12T16:46:42.437Z,5.17
2022-09-12T16:49:11.989Z,5.23
2022-09-12T16:51:43.841Z,6.30
2022-09-12T16:54:13.956Z,4.47
2022-09-12T16:56:42.802Z,5.40
2022-09-12T16:59:16.167Z,5.17
2022-09-12T17:01:46.165Z,6.10
2022-09-12T17:04:14.713Z,6.07
2022-09-12T17:06:44.058Z,5.90
2022-09-12T17:09:18.405Z,6.97
2022-09-12T17:11:49.580Z,4.93
2022-09-12T17:14:17.988Z,6.60
2022-09-12T17:16:51.736Z,7.87
2022-09-12T17:19:22.550Z,7.27
2022-09-12T17:21:50.909Z,9.40
2022-09-12T17:24:21.223Z,6.67
2022-09-12T17:26:50.308Z,5.67
2022-09-12T17:29:19.397Z,8.67
2022-09-12T17:31:49.190Z,8.63
2022-09-12T17:34:18.265Z,7.63
2022-09-12T17:36:48.432Z,8.83
2022-09-12T17:39:17.075Z,8.93
2022-09-12T17:41:46.051Z,7.50
2022-09-12T17:44:15.976Z,9.13
2022-09-12T17:46:44.869Z,7.20
2022-09-12T17:49:16.118Z,6.07
2022-09-12T17:51:45.042Z,15.53
2022-09-12T17:54:15.709Z,5.70
2022-09-12T17:56:45.507Z,10.53
2022-09-12T17:59:15.813Z,5.17
2022-09-12T18:02:06.486Z,6.17
2022-09-12T18:04:37.523Z,7.23
2022-09-12T18:07:09.779Z,7.90
2022-09-12T18:09:39.535Z,5.90
2022-09-12T18:12:08.780Z,7.33
2022-09-12T18:14:37.652Z,7.23
2022-09-12T18:17:08.674Z,6.43
2022-09-12T18:19:39.650Z,6.40
2022-09-12T18:22:15.406Z,6.50
2022-09-12T18:24:44.630Z,6.00
2022-09-12T18:27:13.043Z,6.47
2022-09-12T18:29:41.466Z,5.90
2022-09-12T18:32:10.906Z,7.73
2022-09-12T18:34:41.246Z,6.47
2022-09-12T18:37:09.622Z,5.83
2022-09-12T18:39:40.884Z,6.40
2022-09-12T18:42:09.315Z,7.17
2022-09-12T18:44:37.727Z,5.17
2022-09-12T18:47:06.757Z,5.80
2022-09-12T18:49:35.618Z,5.40
2022-09-12T18:52:07.580Z,4.77
2022-09-12T18:54:37.343Z,5.07
2022-09-12T18:57:05.924Z,8.67
2022-09-12T18:59:34.482Z,6.07
2022-09-12T19:02:03.039Z,5.57
2022-09-12T19:04:33.202Z,5.93
2022-09-12T19:07:02.173Z,5.87
2022-09-12T19:09:32.039Z,6.43
2022-09-12T19:12:00.710Z,7.30
2022-09-12T19:14:30.269Z,6.13
2022-09-12T19:16:59.709Z,8.83
2022-09-12T19:19:28.718Z,6.80
2022-09-12T19:21:57.344Z,8.57
2022-09-12T19:24:26.809Z,6.97
2022-09-12T19:26:58.946Z,6.77
2022-09-12T19:29:28.891Z,6.67
2022-09-12T19:31:57.562Z,7.47
2022-09-12T19:34:26.033Z,7.80
2022-09-12T19:36:54.599Z,7.70
2022-09-12T19:39:23.943Z,7.67
2022-09-12T19:41:53.412Z,9.23
2022-09-12T19:44:23.738Z,8.27
2022-09-12T19:46:52.687Z,6.83
2022-09-12T19:49:22.170Z,7.90
2022-09-12T19:51:50.599Z,8.80
2022-09-12T19:54:20.158Z,7.00
2022-09-12T19:56:48.649Z,7.13
2022-09-12T19:59:17.111Z,10.07
2022-09-12T20:01:47.119Z,8.37
2022-09-12T20:04:17.565Z,8.83
2022-09-12T20:06:46.402Z,8.27
2022-09-12T20:09:14.813Z,6.77
2022-09-12T20:11:43.256Z,7.80
2022-09-12T20:14:11.707Z,6.77
2022-09-12T20:16:41.885Z,8.07
2022-09-12T20:19:11.973Z,7.73
2022-09-12T20:21:41.116Z,6.37
2022-09-12T20:24:12.969Z,6.93
2022-09-12T20:26:41.667Z,8.03
2022-09-12T20:29:11.932Z,7.10
2022-09-12T20:31:41.832Z,7.30
2022-09-12T20:34:15.551Z,6.97
2022-09-12T20:36:43.988Z,6.93
2022-09-12T20:39:14.833Z,7.73
2022-09-12T20:41:43.371Z,7.03
2022-09-12T20:44:12.409Z,8.23
2022-09-12T20:46:40.967Z,6.67
2022-09-12T20:49:16.229Z,6.47
2022-09-12T20:51:45.177Z,6.53
2022-09-12T20:54:14.032Z,7.30
2022-09-12T20:56:42.627Z,7.60
2022-09-12T20:59:12.566Z,8.43
2022-09-12T21:01:44.662Z,8.63
2022-09-12T21:04:15.236Z,7.87
2022-09-12T21:06:46.229Z,7.30
2022-09-12T21:09:14.833Z,8.53
2022-09-12T21:11:43.463Z,9.63
2022-09-12T21:14:11.871Z,8.37
2022-09-12T21:16:40.347Z,9.70
2022-09-12T21:19:09.235Z,6.87
2022-09-12T21:21:37.780Z,7.83
2022-09-12T21:24:08.534Z,7.77
2022-09-12T21:26:37.044Z,7.87
2022-09-12T21:29:06.266Z,10.17
2022-09-12T21:31:36.087Z,7.80
2022-09-12T21:34:08.887Z,8.20
2022-09-12T21:36:38.097Z,9.10
2022-09-12T21:39:08.490Z,7.43
2022-09-12T21:41:36.899Z,8.23
2022-09-12T21:44:05.328Z,8.27
2022-09-12T21:46:33.900Z,9.17
2022-09-12T21:49:02.719Z,9.73
2022-09-12T21:51:31.387Z,8.50
2022-09-12T21:54:00.509Z,8.50
2022-09-12T21:56:31.251Z,8.50
2022-09-12T21:58:59.822Z,8.40
2022-09-12T22:01:28.480Z,7.87
2022-09-12T22:03:56.980Z,8.63
2022-09-12T22:06:25.490Z,9.67
2022-09-12T22:08:53.906Z,9.67
2022-09-12T22:11:22.900Z,10.57
2022-09-12T22:13:52.737Z,9.80
2022-09-12T22:16:21.148Z,9.20
2022-09-12T22:18:50.655Z,9.33
2022-09-12T22:21:21.984Z,9.43
2022-09-12T22:24:08.061Z,8.17
2022-09-12T22:26:42.114Z,7.90
2022-09-12T22:29:13.288Z,12.27
2022-09-12T22:31:41.808Z,8.03
2022-09-12T22:34:10.861Z,8.03
2022-09-12T22:36:39.427Z,7.80
2022-09-12T22:39:08.674Z,9.53
2022-09-12T22:41:37.177Z,8.50
2022-09-12T22:44:06.505Z,8.00
2022-09-12T22:46:36.482Z,7.70
2022-09-12T22:49:05.144Z,7.80
2022-09-12T22:51:33.820Z,7.90
2022-09-12T22:54:02.435Z,7.97
2022-09-12T22:56:30.858Z,7.80
2022-09-12T22:58:59.524Z,8.73
2022-09-12T23:01:28.105Z,8.27
2022-09-12T23:03:58.163Z,7.70
2022-09-12T23:06:26.819Z,8.50
2022-09-12T23:08:56.075Z,8.57
2022-09-12T23:11:25.028Z,7.47
2022-09-12T23:13:53.479Z,9.27
2022-09-12T23:16:23.154Z,8.87
2022-09-12T23:18:51.832Z,9.70
2022-09-12T23:21:22.946Z,8.83
2022-09-12T23:23:51.831Z,8.77
2022-09-12T23:26:22.576Z,9.73
2022-09-12T23:28:52.799Z,10.30
2022-09-12T23:31:21.557Z,9.83
2022-09-12T23:33:50.555Z,11.83
2022-09-12T23:36:19.012Z,9.80
2022-09-12T23:38:49.188Z,8.73
2022-09-12T23:41:19.211Z,9.53
2022-09-12T23:43:47.787Z,9.47
2022-09-12T23:46:17.252Z,10.07
2022-09-12T23:48:45.995Z,10.00
2022-09-12T23:51:14.737Z,9.50
2022-09-12T23:53:43.295Z,10.00
2022-09-12T23:56:13.031Z,9.07
2022-09-12T23:58:41.778Z,13.13
